<?xml version="1.0" encoding="UTF-8"?>
<gpx creator="Wikiloc - https://www.wikiloc.com" version="1.1" xmlns="http://www.topografix.com/GPX/1/1" xmlns:xsi="http://www.w3.org/2001/XMLSchema-instance" xsi:schemaLocation="http://www.topografix.com/GPX/1/1 http://www.topografix.com/GPX/1/1/gpx.xsd">
  <metadata>
    <name>Wikiloc - IBILALDIA ANDOAIN 2019</name>
    <link href="https://www.wikiloc.com/hiking-trails/ibilaldia-andoain-2019-34656274">
      <text>IBILALDIA ANDOAIN 2019 on Wikiloc</text>
    </link>
    <time>2019-03-28T16:40:45Z</time>
  </metadata>
  <trk>
    <name>IBILALDIA ANDOAIN 2019</name>
    <cmt></cmt>
    <desc></desc>
    <trkseg>
      <trkpt lat="43.216579" lon="-2.021169">
        <ele>54.082</ele>
        <time>2017-03-21T17:42:59Z</time>
      </trkpt>
      <trkpt lat="43.216791" lon="-2.021565">
        <ele>51.043</ele>
        <time>2017-03-21T17:43:39Z</time>
      </trkpt>
      <trkpt lat="43.217054" lon="-2.021672">
        <ele>54.017</ele>
        <time>2017-03-21T17:44:19Z</time>
      </trkpt>
      <trkpt lat="43.216709" lon="-2.022852">
        <ele>48.008</ele>
        <time>2017-03-21T17:44:59Z</time>
      </trkpt>
      <trkpt lat="43.217948" lon="-2.023841">
        <ele>55.021</ele>
        <time>2017-03-21T17:45:39Z</time>
      </trkpt>
      <trkpt lat="43.219087" lon="-2.024425">
        <ele>50.022</ele>
        <time>2017-03-21T17:46:19Z</time>
      </trkpt>
      <trkpt lat="43.219098" lon="-2.024572">
        <ele>50.084</ele>
        <time>2017-03-21T17:46:59Z</time>
      </trkpt>
      <trkpt lat="43.218276" lon="-2.026003">
        <ele>50.043</ele>
        <time>2017-03-21T17:47:39Z</time>
      </trkpt>
      <trkpt lat="43.218485" lon="-2.026729">
        <ele>50.054</ele>
        <time>2017-03-21T17:48:19Z</time>
      </trkpt>
      <trkpt lat="43.218295" lon="-2.027421">
        <ele>57.020</ele>
        <time>2017-03-21T17:48:59Z</time>
      </trkpt>
      <trkpt lat="43.216763" lon="-2.027675">
        <ele>84.095</ele>
        <time>2017-03-21T17:49:39Z</time>
      </trkpt>
      <trkpt lat="43.216013" lon="-2.029365">
        <ele>90.032</ele>
        <time>2017-03-21T17:50:19Z</time>
      </trkpt>
      <trkpt lat="43.215328" lon="-2.030285">
        <ele>95.012</ele>
        <time>2017-03-21T17:50:59Z</time>
      </trkpt>
      <trkpt lat="43.215160" lon="-2.031312">
        <ele>98.032</ele>
        <time>2017-03-21T17:51:39Z</time>
      </trkpt>
      <trkpt lat="43.215281" lon="-2.032508">
        <ele>101.005</ele>
        <time>2017-03-21T17:52:19Z</time>
      </trkpt>
      <trkpt lat="43.215874" lon="-2.033072">
        <ele>107.008</ele>
        <time>2017-03-21T17:52:59Z</time>
      </trkpt>
      <trkpt lat="43.215860" lon="-2.035330">
        <ele>124.044</ele>
        <time>2017-03-21T17:53:39Z</time>
      </trkpt>
      <trkpt lat="43.216822" lon="-2.037747">
        <ele>144.045</ele>
        <time>2017-03-21T17:54:19Z</time>
      </trkpt>
      <trkpt lat="43.216863" lon="-2.038168">
        <ele>147.097</ele>
        <time>2017-03-21T17:54:59Z</time>
      </trkpt>
      <trkpt lat="43.216566" lon="-2.038693">
        <ele>150.056</ele>
        <time>2017-03-21T17:55:39Z</time>
      </trkpt>
      <trkpt lat="43.216464" lon="-2.040128">
        <ele>159.027</ele>
        <time>2017-03-21T17:56:19Z</time>
      </trkpt>
      <trkpt lat="43.216673" lon="-2.041247">
        <ele>175.063</ele>
        <time>2017-03-21T17:56:59Z</time>
      </trkpt>
      <trkpt lat="43.216722" lon="-2.042829">
        <ele>204.078</ele>
        <time>2017-03-21T17:57:39Z</time>
      </trkpt>
      <trkpt lat="43.216888" lon="-2.042910">
        <ele>202.035</ele>
        <time>2017-03-21T17:58:19Z</time>
      </trkpt>
      <trkpt lat="43.216759" lon="-2.044211">
        <ele>225.075</ele>
        <time>2017-03-21T17:58:59Z</time>
      </trkpt>
      <trkpt lat="43.216888" lon="-2.045919">
        <ele>250.028</ele>
        <time>2017-03-21T17:59:39Z</time>
      </trkpt>
      <trkpt lat="43.216429" lon="-2.046595">
        <ele>262.020</ele>
        <time>2017-03-21T18:00:19Z</time>
      </trkpt>
      <trkpt lat="43.216263" lon="-2.047499">
        <ele>276.008</ele>
        <time>2017-03-21T18:00:59Z</time>
      </trkpt>
      <trkpt lat="43.215782" lon="-2.048183">
        <ele>282.020</ele>
        <time>2017-03-21T18:01:39Z</time>
      </trkpt>
      <trkpt lat="43.216446" lon="-2.048749">
        <ele>289.031</ele>
        <time>2017-03-21T18:02:19Z</time>
      </trkpt>
      <trkpt lat="43.216632" lon="-2.049151">
        <ele>299.043</ele>
        <time>2017-03-21T18:02:59Z</time>
      </trkpt>
      <trkpt lat="43.216841" lon="-2.048650">
        <ele>303.032</ele>
        <time>2017-03-21T18:03:39Z</time>
      </trkpt>
      <trkpt lat="43.216980" lon="-2.048746">
        <ele>303.073</ele>
        <time>2017-03-21T18:04:19Z</time>
      </trkpt>
      <trkpt lat="43.216968" lon="-2.050289">
        <ele>314.099</ele>
        <time>2017-03-21T18:04:59Z</time>
      </trkpt>
      <trkpt lat="43.217052" lon="-2.050624">
        <ele>316.074</ele>
        <time>2017-03-21T18:05:39Z</time>
      </trkpt>
      <trkpt lat="43.217451" lon="-2.050798">
        <ele>339.061</ele>
        <time>2017-03-21T18:06:19Z</time>
      </trkpt>
      <trkpt lat="43.217795" lon="-2.052027">
        <ele>351.055</ele>
        <time>2017-03-21T18:06:59Z</time>
      </trkpt>
      <trkpt lat="43.217742" lon="-2.052727">
        <ele>361.007</ele>
        <time>2017-03-21T18:07:39Z</time>
      </trkpt>
      <trkpt lat="43.217097" lon="-2.054044">
        <ele>361.017</ele>
        <time>2017-03-21T18:08:19Z</time>
      </trkpt>
      <trkpt lat="43.217154" lon="-2.054583">
        <ele>360.008</ele>
        <time>2017-03-21T18:08:59Z</time>
      </trkpt>
      <trkpt lat="43.217484" lon="-2.055162">
        <ele>354.038</ele>
        <time>2017-03-21T18:09:39Z</time>
      </trkpt>
      <trkpt lat="43.217895" lon="-2.055433">
        <ele>353.029</ele>
        <time>2017-03-21T18:10:19Z</time>
      </trkpt>
      <trkpt lat="43.218651" lon="-2.055339">
        <ele>383.011</ele>
        <time>2017-03-21T18:10:59Z</time>
      </trkpt>
      <trkpt lat="43.219249" lon="-2.055894">
        <ele>384.050</ele>
        <time>2017-03-21T18:11:39Z</time>
      </trkpt>
      <trkpt lat="43.219513" lon="-2.056230">
        <ele>388.011</ele>
        <time>2017-03-21T18:12:19Z</time>
      </trkpt>
      <trkpt lat="43.219803" lon="-2.057112">
        <ele>390.077</ele>
        <time>2017-03-21T18:12:59Z</time>
      </trkpt>
      <trkpt lat="43.219861" lon="-2.057834">
        <ele>399.052</ele>
        <time>2017-03-21T18:13:39Z</time>
      </trkpt>
      <trkpt lat="43.220164" lon="-2.057434">
        <ele>402.019</ele>
        <time>2017-03-21T18:14:19Z</time>
      </trkpt>
      <trkpt lat="43.220321" lon="-2.056739">
        <ele>402.091</ele>
        <time>2017-03-21T18:14:59Z</time>
      </trkpt>
      <trkpt lat="43.220094" lon="-2.054229">
        <ele>439.081</ele>
        <time>2017-03-21T18:15:39Z</time>
      </trkpt>
      <trkpt lat="43.220487" lon="-2.051595">
        <ele>469.019</ele>
        <time>2017-03-21T18:16:19Z</time>
      </trkpt>
      <trkpt lat="43.221562" lon="-2.048883">
        <ele>458.008</ele>
        <time>2017-03-21T18:16:59Z</time>
      </trkpt>
      <trkpt lat="43.222357" lon="-2.048331">
        <ele>458.062</ele>
        <time>2017-03-21T18:17:39Z</time>
      </trkpt>
      <trkpt lat="43.223774" lon="-2.046998">
        <ele>418.013</ele>
        <time>2017-03-21T18:18:19Z</time>
      </trkpt>
      <trkpt lat="43.225078" lon="-2.046603">
        <ele>393.045</ele>
        <time>2017-03-21T18:18:59Z</time>
      </trkpt>
      <trkpt lat="43.225699" lon="-2.047024">
        <ele>377.054</ele>
        <time>2017-03-21T18:19:39Z</time>
      </trkpt>
      <trkpt lat="43.225969" lon="-2.046914">
        <ele>377.015</ele>
        <time>2017-03-21T18:20:19Z</time>
      </trkpt>
      <trkpt lat="43.226747" lon="-2.045450">
        <ele>371.041</ele>
        <time>2017-03-21T18:20:59Z</time>
      </trkpt>
      <trkpt lat="43.227681" lon="-2.045082">
        <ele>366.016</ele>
        <time>2017-03-21T18:21:39Z</time>
      </trkpt>
      <trkpt lat="43.228514" lon="-2.045241">
        <ele>358.063</ele>
        <time>2017-03-21T18:22:19Z</time>
      </trkpt>
      <trkpt lat="43.228731" lon="-2.045715">
        <ele>348.088</ele>
        <time>2017-03-21T18:22:59Z</time>
      </trkpt>
      <trkpt lat="43.228971" lon="-2.045783">
        <ele>344.024</ele>
        <time>2017-03-21T18:23:39Z</time>
      </trkpt>
      <trkpt lat="43.230624" lon="-2.045882">
        <ele>351.026</ele>
        <time>2017-03-21T18:24:19Z</time>
      </trkpt>
      <trkpt lat="43.231033" lon="-2.045831">
        <ele>353.008</ele>
        <time>2017-03-21T18:24:59Z</time>
      </trkpt>
      <trkpt lat="43.231531" lon="-2.045549">
        <ele>349.031</ele>
        <time>2017-03-21T18:25:39Z</time>
      </trkpt>
      <trkpt lat="43.231775" lon="-2.045632">
        <ele>349.032</ele>
        <time>2017-03-21T18:26:19Z</time>
      </trkpt>
      <trkpt lat="43.231009" lon="-2.046378">
        <ele>351.014</ele>
        <time>2017-03-21T18:26:59Z</time>
      </trkpt>
      <trkpt lat="43.230593" lon="-2.047448">
        <ele>338.063</ele>
        <time>2017-03-21T18:27:39Z</time>
      </trkpt>
      <trkpt lat="43.230532" lon="-2.048508">
        <ele>335.074</ele>
        <time>2017-03-21T18:28:19Z</time>
      </trkpt>
      <trkpt lat="43.230355" lon="-2.049049">
        <ele>324.090</ele>
        <time>2017-03-21T18:28:59Z</time>
      </trkpt>
      <trkpt lat="43.230499" lon="-2.051064">
        <ele>306.025</ele>
        <time>2017-03-21T18:29:39Z</time>
      </trkpt>
      <trkpt lat="43.231009" lon="-2.051421">
        <ele>306.072</ele>
        <time>2017-03-21T18:30:19Z</time>
      </trkpt>
      <trkpt lat="43.232217" lon="-2.051294">
        <ele>304.086</ele>
        <time>2017-03-21T18:30:59Z</time>
      </trkpt>
      <trkpt lat="43.233757" lon="-2.052475">
        <ele>271.060</ele>
        <time>2017-03-21T18:31:39Z</time>
      </trkpt>
      <trkpt lat="43.234570" lon="-2.052754">
        <ele>267.026</ele>
        <time>2017-03-21T18:32:19Z</time>
      </trkpt>
      <trkpt lat="43.234738" lon="-2.053167">
        <ele>260.008</ele>
        <time>2017-03-21T18:32:59Z</time>
      </trkpt>
      <trkpt lat="43.234175" lon="-2.053792">
        <ele>245.071</ele>
        <time>2017-03-21T18:33:39Z</time>
      </trkpt>
      <trkpt lat="43.234154" lon="-2.053985">
        <ele>245.062</ele>
        <time>2017-03-21T18:34:19Z</time>
      </trkpt>
      <trkpt lat="43.234789" lon="-2.054081">
        <ele>236.084</ele>
        <time>2017-03-21T18:35:39Z</time>
      </trkpt>
      <trkpt lat="43.236213" lon="-2.054859">
        <ele>209.093</ele>
        <time>2017-03-21T18:36:19Z</time>
      </trkpt>
      <trkpt lat="43.236752" lon="-2.056284">
        <ele>209.074</ele>
        <time>2017-03-21T18:36:59Z</time>
      </trkpt>
      <trkpt lat="43.237776" lon="-2.056174">
        <ele>198.090</ele>
        <time>2017-03-21T18:38:19Z</time>
      </trkpt>
      <trkpt lat="43.239258" lon="-2.056780">
        <ele>181.035</ele>
        <time>2017-03-21T18:38:59Z</time>
      </trkpt>
      <trkpt lat="43.240134" lon="-2.056542">
        <ele>197.062</ele>
        <time>2017-03-21T18:39:39Z</time>
      </trkpt>
      <trkpt lat="43.240471" lon="-2.056156">
        <ele>187.098</ele>
        <time>2017-03-21T18:40:19Z</time>
      </trkpt>
      <trkpt lat="43.241293" lon="-2.056633">
        <ele>174.015</ele>
        <time>2017-03-21T18:40:59Z</time>
      </trkpt>
      <trkpt lat="43.241926" lon="-2.055972">
        <ele>174.026</ele>
        <time>2017-03-21T18:41:39Z</time>
      </trkpt>
      <trkpt lat="43.241077" lon="-2.055825">
        <ele>165.008</ele>
        <time>2017-03-21T18:42:19Z</time>
      </trkpt>
      <trkpt lat="43.241791" lon="-2.054134">
        <ele>141.092</ele>
        <time>2017-03-21T18:42:59Z</time>
      </trkpt>
      <trkpt lat="43.241739" lon="-2.052724">
        <ele>133.013</ele>
        <time>2017-03-21T18:44:19Z</time>
      </trkpt>
      <trkpt lat="43.241966" lon="-2.052628">
        <ele>125.015</ele>
        <time>2017-03-21T18:44:59Z</time>
      </trkpt>
      <trkpt lat="43.242654" lon="-2.051678">
        <ele>120.064</ele>
        <time>2017-03-21T18:45:39Z</time>
      </trkpt>
      <trkpt lat="43.243230" lon="-2.051646">
        <ele>122.035</ele>
        <time>2017-03-21T18:46:19Z</time>
      </trkpt>
      <trkpt lat="43.243718" lon="-2.051300">
        <ele>119.071</ele>
        <time>2017-03-21T18:46:59Z</time>
      </trkpt>
      <trkpt lat="43.244195" lon="-2.050146">
        <ele>110.096</ele>
        <time>2017-03-21T18:47:39Z</time>
      </trkpt>
      <trkpt lat="43.244891" lon="-2.049125">
        <ele>118.053</ele>
        <time>2017-03-21T18:48:19Z</time>
      </trkpt>
      <trkpt lat="43.245340" lon="-2.048610">
        <ele>121.029</ele>
        <time>2017-03-21T18:48:59Z</time>
      </trkpt>
      <trkpt lat="43.245737" lon="-2.048569">
        <ele>154.000</ele>
        <time>2017-03-21T18:49:39Z</time>
      </trkpt>
      <trkpt lat="43.245762" lon="-2.048285">
        <ele>146.020</ele>
        <time>2017-03-21T18:50:19Z</time>
      </trkpt>
      <trkpt lat="43.245541" lon="-2.047928">
        <ele>122.008</ele>
        <time>2017-03-21T18:50:59Z</time>
      </trkpt>
      <trkpt lat="43.245832" lon="-2.046507">
        <ele>105.015</ele>
        <time>2017-03-21T18:51:39Z</time>
      </trkpt>
      <trkpt lat="43.246268" lon="-2.045807">
        <ele>129.046</ele>
        <time>2017-03-21T18:52:19Z</time>
      </trkpt>
      <trkpt lat="43.246807" lon="-2.045321">
        <ele>149.098</ele>
        <time>2017-03-21T18:52:59Z</time>
      </trkpt>
      <trkpt lat="43.246761" lon="-2.044637">
        <ele>124.057</ele>
        <time>2017-03-21T18:53:39Z</time>
      </trkpt>
      <trkpt lat="43.247771" lon="-2.043841">
        <ele>145.088</ele>
        <time>2017-03-21T18:54:19Z</time>
      </trkpt>
      <trkpt lat="43.247599" lon="-2.043071">
        <ele>134.024</ele>
        <time>2017-03-21T18:54:59Z</time>
      </trkpt>
      <trkpt lat="43.247126" lon="-2.042282">
        <ele>128.089</ele>
        <time>2017-03-21T18:55:39Z</time>
      </trkpt>
      <trkpt lat="43.247169" lon="-2.042162">
        <ele>128.016</ele>
        <time>2017-03-21T18:56:19Z</time>
      </trkpt>
      <trkpt lat="43.247577" lon="-2.042212">
        <ele>137.098</ele>
        <time>2017-03-21T18:56:59Z</time>
      </trkpt>
      <trkpt lat="43.247714" lon="-2.042070">
        <ele>147.015</ele>
        <time>2017-03-21T18:57:39Z</time>
      </trkpt>
      <trkpt lat="43.247759" lon="-2.040772">
        <ele>151.026</ele>
        <time>2017-03-21T18:58:19Z</time>
      </trkpt>
      <trkpt lat="43.247651" lon="-2.039992">
        <ele>163.008</ele>
        <time>2017-03-21T18:58:59Z</time>
      </trkpt>
      <trkpt lat="43.247311" lon="-2.039053">
        <ele>162.042</ele>
        <time>2017-03-21T18:59:39Z</time>
      </trkpt>
      <trkpt lat="43.247335" lon="-2.038447">
        <ele>174.073</ele>
        <time>2017-03-21T19:00:19Z</time>
      </trkpt>
      <trkpt lat="43.247646" lon="-2.037425">
        <ele>206.045</ele>
        <time>2017-03-21T19:00:59Z</time>
      </trkpt>
      <trkpt lat="43.247038" lon="-2.035131">
        <ele>206.054</ele>
        <time>2017-03-21T19:01:39Z</time>
      </trkpt>
      <trkpt lat="43.247104" lon="-2.034531">
        <ele>213.035</ele>
        <time>2017-03-21T19:02:19Z</time>
      </trkpt>
      <trkpt lat="43.249400" lon="-2.032511">
        <ele>171.091</ele>
        <time>2017-03-21T19:02:59Z</time>
      </trkpt>
      <trkpt lat="43.249878" lon="-2.031996">
        <ele>158.056</ele>
        <time>2017-03-21T19:03:39Z</time>
      </trkpt>
      <trkpt lat="43.250450" lon="-2.031004">
        <ele>145.093</ele>
        <time>2017-03-21T19:04:19Z</time>
      </trkpt>
      <trkpt lat="43.251490" lon="-2.030218">
        <ele>134.028</ele>
        <time>2017-03-21T19:04:59Z</time>
      </trkpt>
      <trkpt lat="43.252097" lon="-2.028458">
        <ele>104.089</ele>
        <time>2017-03-21T19:05:39Z</time>
      </trkpt>
      <trkpt lat="43.253589" lon="-2.026280">
        <ele>86.017</ele>
        <time>2017-03-21T19:06:19Z</time>
      </trkpt>
      <trkpt lat="43.254849" lon="-2.025315">
        <ele>68.008</ele>
        <time>2017-03-21T19:06:59Z</time>
      </trkpt>
      <trkpt lat="43.255352" lon="-2.025754">
        <ele>66.045</ele>
        <time>2017-03-21T19:07:39Z</time>
      </trkpt>
      <trkpt lat="43.255938" lon="-2.025025">
        <ele>59.046</ele>
        <time>2017-03-21T19:08:19Z</time>
      </trkpt>
      <trkpt lat="43.256446" lon="-2.024977">
        <ele>55.058</ele>
        <time>2017-03-21T19:08:59Z</time>
      </trkpt>
      <trkpt lat="43.256391" lon="-2.024451">
        <ele>53.087</ele>
        <time>2017-03-21T19:09:39Z</time>
      </trkpt>
      <trkpt lat="43.255938" lon="-2.023984">
        <ele>52.098</ele>
        <time>2017-03-21T19:10:19Z</time>
      </trkpt>
      <trkpt lat="43.254998" lon="-2.024022">
        <ele>52.024</ele>
        <time>2017-03-21T19:10:59Z</time>
      </trkpt>
      <trkpt lat="43.254413" lon="-2.023426">
        <ele>46.069</ele>
        <time>2017-03-21T19:11:39Z</time>
      </trkpt>
      <trkpt lat="43.253971" lon="-2.023276">
        <ele>45.016</ele>
        <time>2017-03-21T19:12:19Z</time>
      </trkpt>
      <trkpt lat="43.253855" lon="-2.022960">
        <ele>42.076</ele>
        <time>2017-03-21T19:12:59Z</time>
      </trkpt>
      <trkpt lat="43.253921" lon="-2.022466">
        <ele>35.090</ele>
        <time>2017-03-21T19:13:39Z</time>
      </trkpt>
      <trkpt lat="43.253678" lon="-2.022187">
        <ele>31.019</ele>
        <time>2017-03-21T19:14:19Z</time>
      </trkpt>
      <trkpt lat="43.253523" lon="-2.021511">
        <ele>28.008</ele>
        <time>2017-03-21T19:14:59Z</time>
      </trkpt>
      <trkpt lat="43.253384" lon="-2.019819">
        <ele>31.090</ele>
        <time>2017-03-21T19:15:39Z</time>
      </trkpt>
      <trkpt lat="43.253541" lon="-2.019532">
        <ele>35.011</ele>
        <time>2017-03-21T19:16:19Z</time>
      </trkpt>
      <trkpt lat="43.253386" lon="-2.018829">
        <ele>43.093</ele>
        <time>2017-03-21T19:16:59Z</time>
      </trkpt>
      <trkpt lat="43.253976" lon="-2.018936">
        <ele>34.032</ele>
        <time>2017-03-21T19:17:39Z</time>
      </trkpt>
      <trkpt lat="43.255511" lon="-2.018394">
        <ele>27.093</ele>
        <time>2017-03-21T19:18:19Z</time>
      </trkpt>
      <trkpt lat="43.255355" lon="-2.017429">
        <ele>38.089</ele>
        <time>2017-03-21T19:18:59Z</time>
      </trkpt>
      <trkpt lat="43.255515" lon="-2.016957">
        <ele>38.014</ele>
        <time>2017-03-21T19:19:39Z</time>
      </trkpt>
      <trkpt lat="43.255289" lon="-2.016469">
        <ele>41.051</ele>
        <time>2017-03-21T19:20:19Z</time>
      </trkpt>
      <trkpt lat="43.255324" lon="-2.016179">
        <ele>43.076</ele>
        <time>2017-03-21T19:20:59Z</time>
      </trkpt>
      <trkpt lat="43.256047" lon="-2.015090">
        <ele>62.090</ele>
        <time>2017-03-21T19:21:39Z</time>
      </trkpt>
      <trkpt lat="43.255843" lon="-2.013867">
        <ele>72.019</ele>
        <time>2017-03-21T19:22:19Z</time>
      </trkpt>
      <trkpt lat="43.255672" lon="-2.014033">
        <ele>74.008</ele>
        <time>2017-03-21T19:22:59Z</time>
      </trkpt>
      <trkpt lat="43.255472" lon="-2.014006">
        <ele>79.060</ele>
        <time>2017-03-21T19:23:39Z</time>
      </trkpt>
      <trkpt lat="43.254328" lon="-2.013454">
        <ele>103.061</ele>
        <time>2017-03-21T19:24:19Z</time>
      </trkpt>
      <trkpt lat="43.251831" lon="-2.012762">
        <ele>138.053</ele>
        <time>2017-03-21T19:24:59Z</time>
      </trkpt>
      <trkpt lat="43.250960" lon="-2.013481">
        <ele>165.012</ele>
        <time>2017-03-21T19:25:39Z</time>
      </trkpt>
      <trkpt lat="43.250491" lon="-2.014731">
        <ele>145.053</ele>
        <time>2017-03-21T19:26:19Z</time>
      </trkpt>
      <trkpt lat="43.249483" lon="-2.015342">
        <ele>154.039</ele>
        <time>2017-03-21T19:26:59Z</time>
      </trkpt>
      <trkpt lat="43.248877" lon="-2.015460">
        <ele>152.034</ele>
        <time>2017-03-21T19:27:39Z</time>
      </trkpt>
      <trkpt lat="43.248748" lon="-2.015144">
        <ele>145.071</ele>
        <time>2017-03-21T19:28:19Z</time>
      </trkpt>
      <trkpt lat="43.248709" lon="-2.014071">
        <ele>152.047</ele>
        <time>2017-03-21T19:28:59Z</time>
      </trkpt>
      <trkpt lat="43.248381" lon="-2.013341">
        <ele>149.029</ele>
        <time>2017-03-21T19:29:39Z</time>
      </trkpt>
      <trkpt lat="43.246716" lon="-2.010927">
        <ele>165.021</ele>
        <time>2017-03-21T19:30:19Z</time>
      </trkpt>
      <trkpt lat="43.246134" lon="-2.009575">
        <ele>177.008</ele>
        <time>2017-03-21T19:30:59Z</time>
      </trkpt>
      <trkpt lat="43.245790" lon="-2.009146">
        <ele>183.077</ele>
        <time>2017-03-21T19:31:39Z</time>
      </trkpt>
      <trkpt lat="43.245724" lon="-2.008454">
        <ele>172.028</ele>
        <time>2017-03-21T19:32:19Z</time>
      </trkpt>
      <trkpt lat="43.245255" lon="-2.008186">
        <ele>183.060</ele>
        <time>2017-03-21T19:32:59Z</time>
      </trkpt>
      <trkpt lat="43.245263" lon="-2.007558">
        <ele>175.029</ele>
        <time>2017-03-21T19:33:39Z</time>
      </trkpt>
      <trkpt lat="43.244942" lon="-2.006786">
        <ele>173.090</ele>
        <time>2017-03-21T19:34:19Z</time>
      </trkpt>
      <trkpt lat="43.244145" lon="-2.006239">
        <ele>206.076</ele>
        <time>2017-03-21T19:34:59Z</time>
      </trkpt>
      <trkpt lat="43.244282" lon="-2.005311">
        <ele>201.061</ele>
        <time>2017-03-21T19:35:39Z</time>
      </trkpt>
      <trkpt lat="43.244180" lon="-2.004672">
        <ele>202.078</ele>
        <time>2017-03-21T19:36:19Z</time>
      </trkpt>
      <trkpt lat="43.244008" lon="-2.004731">
        <ele>206.098</ele>
        <time>2017-03-21T19:36:59Z</time>
      </trkpt>
      <trkpt lat="43.243778" lon="-2.005230">
        <ele>209.015</ele>
        <time>2017-03-21T19:37:39Z</time>
      </trkpt>
      <trkpt lat="43.243383" lon="-2.004919">
        <ele>212.026</ele>
        <time>2017-03-21T19:38:19Z</time>
      </trkpt>
      <trkpt lat="43.242926" lon="-2.005965">
        <ele>228.008</ele>
        <time>2017-03-21T19:38:59Z</time>
      </trkpt>
      <trkpt lat="43.243117" lon="-2.007451">
        <ele>262.012</ele>
        <time>2017-03-21T19:39:39Z</time>
      </trkpt>
      <trkpt lat="43.242852" lon="-2.008792">
        <ele>285.063</ele>
        <time>2017-03-21T19:40:19Z</time>
      </trkpt>
      <trkpt lat="43.242617" lon="-2.008985">
        <ele>293.095</ele>
        <time>2017-03-21T19:40:59Z</time>
      </trkpt>
      <trkpt lat="43.242125" lon="-2.008932">
        <ele>298.064</ele>
        <time>2017-03-21T19:41:39Z</time>
      </trkpt>
      <trkpt lat="43.241570" lon="-2.010369">
        <ele>312.035</ele>
        <time>2017-03-21T19:42:19Z</time>
      </trkpt>
      <trkpt lat="43.240902" lon="-2.011592">
        <ele>328.031</ele>
        <time>2017-03-21T19:42:59Z</time>
      </trkpt>
      <trkpt lat="43.240638" lon="-2.011818">
        <ele>336.076</ele>
        <time>2015-03-11T14:29:19Z</time>
      </trkpt>
      <trkpt lat="43.239826" lon="-2.011549">
        <ele>350.063</ele>
        <time>2015-03-11T14:29:59Z</time>
      </trkpt>
      <trkpt lat="43.239208" lon="-2.010863">
        <ele>326.052</ele>
        <time>2015-03-11T14:30:59Z</time>
      </trkpt>
      <trkpt lat="43.238724" lon="-2.011324">
        <ele>339.053</ele>
        <time>2015-03-11T14:31:39Z</time>
      </trkpt>
      <trkpt lat="43.237911" lon="-2.011549">
        <ele>328.008</ele>
        <time>2015-03-11T14:32:19Z</time>
      </trkpt>
      <trkpt lat="43.236720" lon="-2.011552">
        <ele>297.108</ele>
        <time>2017-03-22T23:21:21Z</time>
      </trkpt>
      <trkpt lat="43.236298" lon="-2.011723">
        <ele>291.228</ele>
        <time>2017-03-22T23:21:41Z</time>
      </trkpt>
      <trkpt lat="43.235669" lon="-2.011748">
        <ele>285.659</ele>
        <time>2017-03-22T23:22:21Z</time>
      </trkpt>
      <trkpt lat="43.235067" lon="-2.011319">
        <ele>268.741</ele>
        <time>2017-03-22T23:23:01Z</time>
      </trkpt>
      <trkpt lat="43.234843" lon="-2.010967">
        <ele>268.040</ele>
        <time>2017-03-21T19:56:59Z</time>
      </trkpt>
      <trkpt lat="43.234593" lon="-2.008814">
        <ele>239.031</ele>
        <time>2017-03-21T19:57:39Z</time>
      </trkpt>
      <trkpt lat="43.233611" lon="-2.008307">
        <ele>212.087</ele>
        <time>2017-03-21T19:58:19Z</time>
      </trkpt>
      <trkpt lat="43.233304" lon="-2.007926">
        <ele>201.062</ele>
        <time>2017-03-21T19:58:59Z</time>
      </trkpt>
      <trkpt lat="43.231980" lon="-2.008988">
        <ele>175.039</ele>
        <time>2017-03-21T19:59:39Z</time>
      </trkpt>
      <trkpt lat="43.231436" lon="-2.008846">
        <ele>157.053</ele>
        <time>2017-03-21T20:00:19Z</time>
      </trkpt>
      <trkpt lat="43.230905" lon="-2.009184">
        <ele>138.004</ele>
        <time>2017-03-21T20:00:59Z</time>
      </trkpt>
      <trkpt lat="43.230742" lon="-2.010286">
        <ele>150.014</ele>
        <time>2017-03-21T20:01:39Z</time>
      </trkpt>
      <trkpt lat="43.230471" lon="-2.010997">
        <ele>154.008</ele>
        <time>2017-03-21T20:02:19Z</time>
      </trkpt>
      <trkpt lat="43.228852" lon="-2.011855">
        <ele>115.028</ele>
        <time>2017-03-21T20:02:59Z</time>
      </trkpt>
      <trkpt lat="43.228557" lon="-2.011681">
        <ele>107.079</ele>
        <time>2017-03-21T20:03:39Z</time>
      </trkpt>
      <trkpt lat="43.228117" lon="-2.012767">
        <ele>93.071</ele>
        <time>2017-03-21T20:04:19Z</time>
      </trkpt>
      <trkpt lat="43.227855" lon="-2.012429">
        <ele>88.080</ele>
        <time>2017-03-21T20:04:59Z</time>
      </trkpt>
      <trkpt lat="43.227073" lon="-2.012150">
        <ele>72.051</ele>
        <time>2017-03-21T20:05:39Z</time>
      </trkpt>
      <trkpt lat="43.226874" lon="-2.011651">
        <ele>67.087</ele>
        <time>2017-03-21T20:06:19Z</time>
      </trkpt>
      <trkpt lat="43.226885" lon="-2.010825">
        <ele>61.032</ele>
        <time>2017-03-21T20:06:59Z</time>
      </trkpt>
      <trkpt lat="43.226630" lon="-2.010434">
        <ele>56.089</ele>
        <time>2017-03-21T20:07:39Z</time>
      </trkpt>
      <trkpt lat="43.227404" lon="-2.008685">
        <ele>61.047</ele>
        <time>2017-03-21T20:08:19Z</time>
      </trkpt>
      <trkpt lat="43.227393" lon="-2.007794">
        <ele>59.029</ele>
        <time>2017-03-21T20:08:59Z</time>
      </trkpt>
      <trkpt lat="43.226917" lon="-2.006962">
        <ele>59.921</ele>
        <time>2019-03-28T09:04:29Z</time>
      </trkpt>
      <trkpt lat="43.226970" lon="-2.006723">
        <ele>59.608</ele>
        <time>2019-03-28T09:04:45Z</time>
      </trkpt>
      <trkpt lat="43.226744" lon="-2.006139">
        <ele>60.847</ele>
        <time>2019-03-28T09:06:05Z</time>
      </trkpt>
      <trkpt lat="43.225854" lon="-2.005307">
        <ele>61.518</ele>
        <time>2019-03-28T09:07:17Z</time>
      </trkpt>
      <trkpt lat="43.225901" lon="-2.004887">
        <ele>62.030</ele>
        <time>2019-03-28T09:07:41Z</time>
      </trkpt>
      <trkpt lat="43.225412" lon="-2.005237">
        <ele>72.019</ele>
        <time>2019-03-28T09:08:29Z</time>
      </trkpt>
      <trkpt lat="43.224949" lon="-2.005165">
        <ele>79.350</ele>
        <time>2019-03-28T09:09:09Z</time>
      </trkpt>
      <trkpt lat="43.225411" lon="-2.004328">
        <ele>89.516</ele>
        <time>2019-03-28T09:10:21Z</time>
      </trkpt>
      <trkpt lat="43.225410" lon="-2.003914">
        <ele>95.381</ele>
        <time>2019-03-28T09:10:53Z</time>
      </trkpt>
      <trkpt lat="43.225027" lon="-2.003195">
        <ele>104.358</ele>
        <time>2019-03-28T09:11:49Z</time>
      </trkpt>
      <trkpt lat="43.224852" lon="-2.002320">
        <ele>120.058</ele>
        <time>2019-03-28T09:12:53Z</time>
      </trkpt>
      <trkpt lat="43.224132" lon="-2.001302">
        <ele>131.452</ele>
        <time>2019-03-28T09:14:29Z</time>
      </trkpt>
      <trkpt lat="43.224020" lon="-2.000868">
        <ele>133.617</ele>
        <time>2019-03-28T09:14:53Z</time>
      </trkpt>
      <trkpt lat="43.223992" lon="-1.999464">
        <ele>149.308</ele>
        <time>2019-03-28T09:16:21Z</time>
      </trkpt>
      <trkpt lat="43.224274" lon="-1.998845">
        <ele>156.558</ele>
        <time>2019-03-28T09:17:09Z</time>
      </trkpt>
      <trkpt lat="43.224402" lon="-1.997043">
        <ele>182.759</ele>
        <time>2019-03-28T09:19:17Z</time>
      </trkpt>
      <trkpt lat="43.223970" lon="-1.996224">
        <ele>190.811</ele>
        <time>2019-03-28T09:20:21Z</time>
      </trkpt>
      <trkpt lat="43.223377" lon="-1.996207">
        <ele>199.120</ele>
        <time>2019-03-28T09:21:17Z</time>
      </trkpt>
      <trkpt lat="43.222978" lon="-1.994535">
        <ele>214.071</ele>
        <time>2019-03-28T09:23:09Z</time>
      </trkpt>
      <trkpt lat="43.221729" lon="-1.993392">
        <ele>213.247</ele>
        <time>2019-03-28T10:17:01Z</time>
      </trkpt>
      <trkpt lat="43.221425" lon="-1.992882">
        <ele>217.232</ele>
        <time>2019-03-28T10:17:41Z</time>
      </trkpt>
      <trkpt lat="43.221334" lon="-1.992310">
        <ele>222.679</ele>
        <time>2019-03-28T10:18:21Z</time>
      </trkpt>
      <trkpt lat="43.221480" lon="-1.991355">
        <ele>231.315</ele>
        <time>2019-03-28T10:20:13Z</time>
      </trkpt>
      <trkpt lat="43.220956" lon="-1.990596">
        <ele>253.165</ele>
        <time>2019-03-28T10:21:57Z</time>
      </trkpt>
      <trkpt lat="43.220607" lon="-1.988917">
        <ele>274.611</ele>
        <time>2019-03-28T10:24:21Z</time>
      </trkpt>
      <trkpt lat="43.221456" lon="-1.987041">
        <ele>309.908</ele>
        <time>2019-03-28T10:28:37Z</time>
      </trkpt>
      <trkpt lat="43.221113" lon="-1.986852">
        <ele>315.554</ele>
        <time>2019-03-28T10:29:25Z</time>
      </trkpt>
      <trkpt lat="43.220417" lon="-1.986892">
        <ele>317.565</ele>
        <time>2019-03-28T10:30:21Z</time>
      </trkpt>
      <trkpt lat="43.220158" lon="-1.986665">
        <ele>318.817</ele>
        <time>2019-03-28T10:30:45Z</time>
      </trkpt>
      <trkpt lat="43.219449" lon="-1.984174">
        <ele>318.296</ele>
        <time>2019-03-28T10:33:41Z</time>
      </trkpt>
      <trkpt lat="43.219764" lon="-1.980955">
        <ele>306.277</ele>
        <time>2019-03-28T10:36:37Z</time>
      </trkpt>
      <trkpt lat="43.219603" lon="-1.979873">
        <ele>300.683</ele>
        <time>2019-03-28T10:37:33Z</time>
      </trkpt>
      <trkpt lat="43.220060" lon="-1.978229">
        <ele>307.558</ele>
        <time>2019-03-28T10:39:09Z</time>
      </trkpt>
      <trkpt lat="43.220311" lon="-1.976048">
        <ele>301.845</ele>
        <time>2019-03-28T10:40:53Z</time>
      </trkpt>
      <trkpt lat="43.219785" lon="-1.975093">
        <ele>288.477</ele>
        <time>2019-03-28T10:41:57Z</time>
      </trkpt>
      <trkpt lat="43.219824" lon="-1.974577">
        <ele>287.461</ele>
        <time>2019-03-28T10:42:53Z</time>
      </trkpt>
      <trkpt lat="43.219658" lon="-1.973946">
        <ele>301.027</ele>
        <time>2019-03-28T10:44:21Z</time>
      </trkpt>
      <trkpt lat="43.219927" lon="-1.973468">
        <ele>311.108</ele>
        <time>2019-03-28T10:45:33Z</time>
      </trkpt>
      <trkpt lat="43.219701" lon="-1.973225">
        <ele>317.490</ele>
        <time>2019-03-28T10:46:05Z</time>
      </trkpt>
      <trkpt lat="43.219925" lon="-1.972867">
        <ele>325.151</ele>
        <time>2019-03-28T10:46:45Z</time>
      </trkpt>
      <trkpt lat="43.219613" lon="-1.972570">
        <ele>334.273</ele>
        <time>2019-03-28T10:47:25Z</time>
      </trkpt>
      <trkpt lat="43.219593" lon="-1.972241">
        <ele>339.062</ele>
        <time>2019-03-28T10:48:05Z</time>
      </trkpt>
      <trkpt lat="43.218950" lon="-1.972060">
        <ele>351.773</ele>
        <time>2019-03-28T10:49:33Z</time>
      </trkpt>
      <trkpt lat="43.218650" lon="-1.971369">
        <ele>356.189</ele>
        <time>2019-03-28T10:50:29Z</time>
      </trkpt>
      <trkpt lat="43.217607" lon="-1.970926">
        <ele>376.584</ele>
        <time>2019-03-28T10:52:29Z</time>
      </trkpt>
      <trkpt lat="43.217350" lon="-1.970027">
        <ele>391.291</ele>
        <time>2019-03-28T10:54:37Z</time>
      </trkpt>
      <trkpt lat="43.217296" lon="-1.967305">
        <ele>416.068</ele>
        <time>2019-03-28T10:58:05Z</time>
      </trkpt>
      <trkpt lat="43.216959" lon="-1.965865">
        <ele>428.542</ele>
        <time>2019-03-28T11:00:05Z</time>
      </trkpt>
      <trkpt lat="43.216672" lon="-1.965773">
        <ele>428.126</ele>
        <time>2019-03-28T11:00:29Z</time>
      </trkpt>
      <trkpt lat="43.216223" lon="-1.965993">
        <ele>434.308</ele>
        <time>2019-03-28T11:01:17Z</time>
      </trkpt>
      <trkpt lat="43.215735" lon="-1.966495">
        <ele>446.969</ele>
        <time>2019-03-28T11:02:37Z</time>
      </trkpt>
      <trkpt lat="43.215230" lon="-1.966551">
        <ele>457.610</ele>
        <time>2019-03-28T11:03:41Z</time>
      </trkpt>
      <trkpt lat="43.214421" lon="-1.966027">
        <ele>469.992</ele>
        <time>2019-03-28T11:05:17Z</time>
      </trkpt>
      <trkpt lat="43.214085" lon="-1.965643">
        <ele>478.261</ele>
        <time>2019-03-28T11:06:13Z</time>
      </trkpt>
      <trkpt lat="43.213588" lon="-1.965562">
        <ele>487.042</ele>
        <time>2019-03-28T11:09:01Z</time>
      </trkpt>
      <trkpt lat="43.213323" lon="-1.965318">
        <ele>497.678</ele>
        <time>2019-03-28T11:12:45Z</time>
      </trkpt>
      <trkpt lat="43.213169" lon="-1.964983">
        <ele>504.433</ele>
        <time>2019-03-28T11:13:25Z</time>
      </trkpt>
      <trkpt lat="43.213270" lon="-1.962627">
        <ele>530.160</ele>
        <time>2019-03-28T11:16:37Z</time>
      </trkpt>
      <trkpt lat="43.213342" lon="-1.961988">
        <ele>536.199</ele>
        <time>2019-03-28T11:18:05Z</time>
      </trkpt>
      <trkpt lat="43.213564" lon="-1.961740">
        <ele>541.407</ele>
        <time>2019-03-28T11:18:53Z</time>
      </trkpt>
      <trkpt lat="43.213881" lon="-1.960521">
        <ele>559.727</ele>
        <time>2019-03-28T11:20:45Z</time>
      </trkpt>
      <trkpt lat="43.213818" lon="-1.960043">
        <ele>566.808</ele>
        <time>2019-03-28T11:22:21Z</time>
      </trkpt>
      <trkpt lat="43.212736" lon="-1.959247">
        <ele>583.862</ele>
        <time>2019-03-28T11:24:21Z</time>
      </trkpt>
      <trkpt lat="43.211838" lon="-1.959206">
        <ele>603.523</ele>
        <time>2019-03-28T11:26:13Z</time>
      </trkpt>
      <trkpt lat="43.211322" lon="-1.959339">
        <ele>619.715</ele>
        <time>2019-03-28T11:27:33Z</time>
      </trkpt>
      <trkpt lat="43.209913" lon="-1.960246">
        <ele>665.974</ele>
        <time>2019-03-28T11:31:41Z</time>
      </trkpt>
      <trkpt lat="43.208354" lon="-1.961662">
        <ele>733.835</ele>
        <time>2019-03-28T11:37:33Z</time>
      </trkpt>
      <trkpt lat="43.207942" lon="-1.961341">
        <ele>742.521</ele>
        <time>2019-03-28T11:38:45Z</time>
      </trkpt>
      <trkpt lat="43.207367" lon="-1.961300">
        <ele>764.596</ele>
        <time>2019-03-28T11:41:01Z</time>
      </trkpt>
      <trkpt lat="43.206856" lon="-1.961591">
        <ele>796.643</ele>
        <time>2019-03-28T11:44:29Z</time>
      </trkpt>
      <trkpt lat="43.206621" lon="-1.961499">
        <ele>811.125</ele>
        <time>2019-03-28T11:46:05Z</time>
      </trkpt>
      <trkpt lat="43.206617" lon="-1.961226">
        <ele>808.026</ele>
        <time>2019-03-28T11:47:57Z</time>
      </trkpt>
      <trkpt lat="43.206393" lon="-1.961043">
        <ele>795.708</ele>
        <time>2019-03-28T11:49:25Z</time>
      </trkpt>
      <trkpt lat="43.206018" lon="-1.960938">
        <ele>784.908</ele>
        <time>2019-03-28T11:50:13Z</time>
      </trkpt>
      <trkpt lat="43.205693" lon="-1.961254">
        <ele>772.185</ele>
        <time>2019-03-28T11:51:01Z</time>
      </trkpt>
      <trkpt lat="43.205320" lon="-1.960956">
        <ele>753.866</ele>
        <time>2019-03-28T11:52:13Z</time>
      </trkpt>
      <trkpt lat="43.204452" lon="-1.960641">
        <ele>728.888</ele>
        <time>2019-03-28T11:59:41Z</time>
      </trkpt>
      <trkpt lat="43.203080" lon="-1.960978">
        <ele>711.037</ele>
        <time>2019-03-28T12:01:49Z</time>
      </trkpt>
      <trkpt lat="43.201037" lon="-1.963019">
        <ele>690.518</ele>
        <time>2019-03-28T12:04:53Z</time>
      </trkpt>
      <trkpt lat="43.200162" lon="-1.964153">
        <ele>694.524</ele>
        <time>2019-03-28T12:07:17Z</time>
      </trkpt>
      <trkpt lat="43.199335" lon="-1.964645">
        <ele>699.479</ele>
        <time>2019-03-28T12:08:29Z</time>
      </trkpt>
      <trkpt lat="43.197552" lon="-1.966493">
        <ele>742.346</ele>
        <time>2019-03-28T12:13:01Z</time>
      </trkpt>
      <trkpt lat="43.196883" lon="-1.966842">
        <ele>760.071</ele>
        <time>2019-03-28T12:14:37Z</time>
      </trkpt>
      <trkpt lat="43.195905" lon="-1.967005">
        <ele>777.341</ele>
        <time>2019-03-28T12:16:45Z</time>
      </trkpt>
      <trkpt lat="43.196673" lon="-1.967534">
        <ele>764.515</ele>
        <time>2019-03-28T12:21:01Z</time>
      </trkpt>
      <trkpt lat="43.197014" lon="-1.968663">
        <ele>734.608</ele>
        <time>2019-03-28T12:22:29Z</time>
      </trkpt>
      <trkpt lat="43.197322" lon="-1.970400">
        <ele>725.160</ele>
        <time>2019-03-28T12:25:01Z</time>
      </trkpt>
      <trkpt lat="43.197736" lon="-1.974921">
        <ele>638.761</ele>
        <time>2019-03-28T12:31:25Z</time>
      </trkpt>
      <trkpt lat="43.197588" lon="-1.975723">
        <ele>625.273</ele>
        <time>2019-03-28T12:42:21Z</time>
      </trkpt>
      <trkpt lat="43.197123" lon="-1.976890">
        <ele>610.782</ele>
        <time>2019-03-28T12:43:57Z</time>
      </trkpt>
      <trkpt lat="43.197234" lon="-1.977833">
        <ele>608.043</ele>
        <time>2019-03-28T12:45:17Z</time>
      </trkpt>
      <trkpt lat="43.196764" lon="-1.978277">
        <ele>598.039</ele>
        <time>2019-03-28T12:46:05Z</time>
      </trkpt>
      <trkpt lat="43.196150" lon="-1.978485">
        <ele>582.424</ele>
        <time>2019-03-28T12:48:29Z</time>
      </trkpt>
      <trkpt lat="43.195992" lon="-1.978468">
        <ele>578.291</ele>
        <time>2019-03-28T12:49:01Z</time>
      </trkpt>
      <trkpt lat="43.195826" lon="-1.978085">
        <ele>574.611</ele>
        <time>2019-03-28T12:49:33Z</time>
      </trkpt>
      <trkpt lat="43.195784" lon="-1.979539">
        <ele>558.121</ele>
        <time>2019-03-28T12:51:01Z</time>
      </trkpt>
      <trkpt lat="43.195407" lon="-1.979580">
        <ele>553.003</ele>
        <time>2019-03-28T12:52:05Z</time>
      </trkpt>
      <trkpt lat="43.194934" lon="-1.979150">
        <ele>537.908</ele>
        <time>2019-03-28T12:53:17Z</time>
      </trkpt>
      <trkpt lat="43.194028" lon="-1.978962">
        <ele>516.054</ele>
        <time>2019-03-28T12:55:09Z</time>
      </trkpt>
      <trkpt lat="43.193925" lon="-1.978770">
        <ele>511.625</ele>
        <time>2019-03-28T12:55:41Z</time>
      </trkpt>
      <trkpt lat="43.193392" lon="-1.978659">
        <ele>492.947</ele>
        <time>2019-03-28T12:57:57Z</time>
      </trkpt>
      <trkpt lat="43.191767" lon="-1.980016">
        <ele>473.796</ele>
        <time>2019-03-28T13:04:21Z</time>
      </trkpt>
      <trkpt lat="43.191014" lon="-1.980286">
        <ele>460.237</ele>
        <time>2019-03-28T13:05:33Z</time>
      </trkpt>
      <trkpt lat="43.190471" lon="-1.980315">
        <ele>444.043</ele>
        <time>2019-03-28T13:06:29Z</time>
      </trkpt>
      <trkpt lat="43.190244" lon="-1.980579">
        <ele>433.978</ele>
        <time>2019-03-28T13:07:01Z</time>
      </trkpt>
      <trkpt lat="43.189933" lon="-1.980369">
        <ele>425.315</ele>
        <time>2019-03-28T13:07:33Z</time>
      </trkpt>
      <trkpt lat="43.188085" lon="-1.980197">
        <ele>395.585</ele>
        <time>2019-03-28T13:09:49Z</time>
      </trkpt>
      <trkpt lat="43.187184" lon="-1.980916">
        <ele>387.389</ele>
        <time>2019-03-28T13:11:01Z</time>
      </trkpt>
      <trkpt lat="43.186405" lon="-1.981984">
        <ele>381.217</ele>
        <time>2019-03-28T13:12:21Z</time>
      </trkpt>
      <trkpt lat="43.185335" lon="-1.982497">
        <ele>360.808</ele>
        <time>2019-03-28T13:13:49Z</time>
      </trkpt>
      <trkpt lat="43.184683" lon="-1.983565">
        <ele>352.371</ele>
        <time>2019-03-28T13:15:01Z</time>
      </trkpt>
      <trkpt lat="43.184536" lon="-1.984089">
        <ele>343.862</ele>
        <time>2019-03-28T13:15:33Z</time>
      </trkpt>
      <trkpt lat="43.183901" lon="-1.984354">
        <ele>338.294</ele>
        <time>2019-03-28T13:16:21Z</time>
      </trkpt>
      <trkpt lat="43.182265" lon="-1.984622">
        <ele>322.363</ele>
        <time>2019-03-28T13:18:21Z</time>
      </trkpt>
      <trkpt lat="43.181949" lon="-1.984853">
        <ele>319.094</ele>
        <time>2019-03-28T13:18:45Z</time>
      </trkpt>
      <trkpt lat="43.181487" lon="-1.985578">
        <ele>314.490</ele>
        <time>2019-03-28T13:19:33Z</time>
      </trkpt>
      <trkpt lat="43.180834" lon="-1.985984">
        <ele>300.185</ele>
        <time>2019-03-28T13:20:21Z</time>
      </trkpt>
      <trkpt lat="43.180477" lon="-1.986049">
        <ele>292.742</ele>
        <time>2019-03-28T13:20:45Z</time>
      </trkpt>
      <trkpt lat="43.180151" lon="-1.985898">
        <ele>286.684</ele>
        <time>2019-03-28T13:21:09Z</time>
      </trkpt>
      <trkpt lat="43.179522" lon="-1.985877">
        <ele>272.507</ele>
        <time>2019-03-28T13:21:57Z</time>
      </trkpt>
      <trkpt lat="43.178858" lon="-1.988161">
        <ele>249.217</ele>
        <time>2019-03-28T13:24:05Z</time>
      </trkpt>
      <trkpt lat="43.178217" lon="-1.989528">
        <ele>234.208</ele>
        <time>2019-03-28T13:25:41Z</time>
      </trkpt>
      <trkpt lat="43.178266" lon="-1.989748">
        <ele>229.911</ele>
        <time>2019-03-28T13:25:57Z</time>
      </trkpt>
      <trkpt lat="43.178718" lon="-1.990200">
        <ele>222.562</ele>
        <time>2019-03-28T13:26:37Z</time>
      </trkpt>
      <trkpt lat="43.179043" lon="-1.990293">
        <ele>217.454</ele>
        <time>2019-03-28T13:27:01Z</time>
      </trkpt>
      <trkpt lat="43.179377" lon="-1.990690">
        <ele>217.883</ele>
        <time>2019-03-28T13:27:33Z</time>
      </trkpt>
      <trkpt lat="43.179646" lon="-1.990782">
        <ele>215.284</ele>
        <time>2019-03-28T13:27:57Z</time>
      </trkpt>
      <trkpt lat="43.180867" lon="-1.992540">
        <ele>184.970</ele>
        <time>2019-03-28T13:30:05Z</time>
      </trkpt>
      <trkpt lat="43.181637" lon="-1.994074">
        <ele>157.425</ele>
        <time>2019-03-28T13:32:13Z</time>
      </trkpt>
      <trkpt lat="43.182250" lon="-1.994787">
        <ele>154.782</ele>
        <time>2019-03-28T13:33:17Z</time>
      </trkpt>
      <trkpt lat="43.183692" lon="-1.995988">
        <ele>150.167</ele>
        <time>2019-03-28T13:36:05Z</time>
      </trkpt>
      <trkpt lat="43.184370" lon="-1.995872">
        <ele>147.181</ele>
        <time>2019-03-28T13:36:53Z</time>
      </trkpt>
      <trkpt lat="43.185634" lon="-1.995068">
        <ele>140.619</ele>
        <time>2019-03-28T13:38:37Z</time>
      </trkpt>
      <trkpt lat="43.186119" lon="-1.995071">
        <ele>139.908</ele>
        <time>2019-03-28T13:40:21Z</time>
      </trkpt>
      <trkpt lat="43.187337" lon="-1.995774">
        <ele>135.539</ele>
        <time>2019-03-28T13:41:49Z</time>
      </trkpt>
      <trkpt lat="43.187611" lon="-1.997326">
        <ele>134.640</ele>
        <time>2019-03-28T13:43:09Z</time>
      </trkpt>
      <trkpt lat="43.187344" lon="-1.998711">
        <ele>132.822</ele>
        <time>2019-03-28T13:44:21Z</time>
      </trkpt>
      <trkpt lat="43.186557" lon="-2.000797">
        <ele>129.771</ele>
        <time>2019-03-28T13:46:21Z</time>
      </trkpt>
      <trkpt lat="43.186519" lon="-2.001445">
        <ele>127.972</ele>
        <time>2019-03-28T13:46:53Z</time>
      </trkpt>
      <trkpt lat="43.186684" lon="-2.002226">
        <ele>125.628</ele>
        <time>2019-03-28T13:47:49Z</time>
      </trkpt>
      <trkpt lat="43.186322" lon="-2.001865">
        <ele>116.393</ele>
        <time>2019-03-28T13:49:33Z</time>
      </trkpt>
      <trkpt lat="43.186175" lon="-2.001287">
        <ele>110.480</ele>
        <time>2019-03-28T13:50:05Z</time>
      </trkpt>
      <trkpt lat="43.186240" lon="-2.000604">
        <ele>105.658</ele>
        <time>2019-03-28T13:50:53Z</time>
      </trkpt>
      <trkpt lat="43.186070" lon="-2.000235">
        <ele>105.652</ele>
        <time>2019-03-28T13:51:57Z</time>
      </trkpt>
      <trkpt lat="43.186325" lon="-1.999456">
        <ele>112.317</ele>
        <time>2019-03-28T13:53:09Z</time>
      </trkpt>
      <trkpt lat="43.186258" lon="-1.998082">
        <ele>123.508</ele>
        <time>2019-03-28T13:54:45Z</time>
      </trkpt>
      <trkpt lat="43.186113" lon="-1.997808">
        <ele>125.848</ele>
        <time>2019-03-28T13:55:09Z</time>
      </trkpt>
      <trkpt lat="43.185452" lon="-1.998054">
        <ele>141.899</ele>
        <time>2019-03-28T13:56:37Z</time>
      </trkpt>
      <trkpt lat="43.185046" lon="-1.999999">
        <ele>177.331</ele>
        <time>2019-03-28T14:00:21Z</time>
      </trkpt>
      <trkpt lat="43.184916" lon="-2.000120">
        <ele>182.840</ele>
        <time>2019-03-28T14:00:45Z</time>
      </trkpt>
      <trkpt lat="43.184677" lon="-1.999308">
        <ele>196.081</ele>
        <time>2019-03-28T14:02:05Z</time>
      </trkpt>
      <trkpt lat="43.184408" lon="-2.000022">
        <ele>209.787</ele>
        <time>2019-03-28T14:03:17Z</time>
      </trkpt>
      <trkpt lat="43.184063" lon="-2.000067">
        <ele>218.252</ele>
        <time>2019-03-28T14:04:05Z</time>
      </trkpt>
      <trkpt lat="43.183976" lon="-2.000651">
        <ele>229.059</ele>
        <time>2019-03-28T14:05:01Z</time>
      </trkpt>
      <trkpt lat="43.183681" lon="-2.001284">
        <ele>241.514</ele>
        <time>2019-03-28T14:06:13Z</time>
      </trkpt>
      <trkpt lat="43.183043" lon="-1.999786">
        <ele>265.154</ele>
        <time>2019-03-28T14:08:45Z</time>
      </trkpt>
      <trkpt lat="43.182651" lon="-1.999771">
        <ele>267.009</ele>
        <time>2019-03-28T14:09:17Z</time>
      </trkpt>
      <trkpt lat="43.182242" lon="-2.000052">
        <ele>274.108</ele>
        <time>2019-03-28T14:10:13Z</time>
      </trkpt>
      <trkpt lat="43.182359" lon="-2.000149">
        <ele>275.014</ele>
        <time>2019-03-28T14:12:29Z</time>
      </trkpt>
      <trkpt lat="43.182750" lon="-1.999960">
        <ele>275.365</ele>
        <time>2019-03-28T14:13:17Z</time>
      </trkpt>
      <trkpt lat="43.182935" lon="-2.000077">
        <ele>275.147</ele>
        <time>2019-03-28T14:13:33Z</time>
      </trkpt>
      <trkpt lat="43.183168" lon="-2.001527">
        <ele>274.786</ele>
        <time>2019-03-28T14:15:33Z</time>
      </trkpt>
      <trkpt lat="43.183629" lon="-2.002684">
        <ele>274.517</ele>
        <time>2019-03-28T14:16:45Z</time>
      </trkpt>
      <trkpt lat="43.183720" lon="-2.004375">
        <ele>272.593</ele>
        <time>2019-03-28T14:18:21Z</time>
      </trkpt>
      <trkpt lat="43.183005" lon="-2.005881">
        <ele>272.468</ele>
        <time>2019-03-28T14:20:05Z</time>
      </trkpt>
      <trkpt lat="43.182349" lon="-2.006394">
        <ele>271.265</ele>
        <time>2019-03-28T14:21:41Z</time>
      </trkpt>
      <trkpt lat="43.182018" lon="-2.007322">
        <ele>270.718</ele>
        <time>2019-03-28T14:22:37Z</time>
      </trkpt>
      <trkpt lat="43.181269" lon="-2.007930">
        <ele>270.398</ele>
        <time>2019-03-28T14:23:41Z</time>
      </trkpt>
      <trkpt lat="43.181297" lon="-2.009134">
        <ele>269.117</ele>
        <time>2019-03-28T14:24:53Z</time>
      </trkpt>
      <trkpt lat="43.180571" lon="-2.009760">
        <ele>269.208</ele>
        <time>2019-03-28T14:26:05Z</time>
      </trkpt>
      <trkpt lat="43.179885" lon="-2.009764">
        <ele>269.234</ele>
        <time>2019-03-28T14:26:53Z</time>
      </trkpt>
      <trkpt lat="43.179670" lon="-2.010166">
        <ele>268.755</ele>
        <time>2019-03-28T14:27:25Z</time>
      </trkpt>
      <trkpt lat="43.179796" lon="-2.010811">
        <ele>268.487</ele>
        <time>2019-03-28T14:28:21Z</time>
      </trkpt>
      <trkpt lat="43.180355" lon="-2.011579">
        <ele>268.356</ele>
        <time>2019-03-28T14:29:17Z</time>
      </trkpt>
      <trkpt lat="43.180323" lon="-2.011987">
        <ele>269.047</ele>
        <time>2019-03-28T14:30:13Z</time>
      </trkpt>
      <trkpt lat="43.179965" lon="-2.012182">
        <ele>268.243</ele>
        <time>2019-03-28T14:30:45Z</time>
      </trkpt>
      <trkpt lat="43.179166" lon="-2.011978">
        <ele>268.288</ele>
        <time>2019-03-28T14:31:49Z</time>
      </trkpt>
      <trkpt lat="43.178112" lon="-2.012306">
        <ele>268.255</ele>
        <time>2019-03-28T14:33:09Z</time>
      </trkpt>
      <trkpt lat="43.177833" lon="-2.012278">
        <ele>267.718</ele>
        <time>2019-03-28T14:33:41Z</time>
      </trkpt>
      <trkpt lat="43.177549" lon="-2.012034">
        <ele>267.198</ele>
        <time>2019-03-28T14:34:29Z</time>
      </trkpt>
      <trkpt lat="43.177374" lon="-2.012122">
        <ele>267.217</ele>
        <time>2019-03-28T14:35:17Z</time>
      </trkpt>
      <trkpt lat="43.177735" lon="-2.013514">
        <ele>266.508</ele>
        <time>2019-03-28T14:36:45Z</time>
      </trkpt>
      <trkpt lat="43.177991" lon="-2.013800">
        <ele>267.084</ele>
        <time>2019-03-28T14:37:09Z</time>
      </trkpt>
      <trkpt lat="43.178245" lon="-2.013769">
        <ele>266.185</ele>
        <time>2019-03-28T14:37:41Z</time>
      </trkpt>
      <trkpt lat="43.178499" lon="-2.014018">
        <ele>266.417</ele>
        <time>2019-03-28T14:38:05Z</time>
      </trkpt>
      <trkpt lat="43.179228" lon="-2.014227">
        <ele>266.926</ele>
        <time>2019-03-28T14:39:01Z</time>
      </trkpt>
      <trkpt lat="43.179854" lon="-2.014795">
        <ele>266.327</ele>
        <time>2019-03-28T14:39:57Z</time>
      </trkpt>
      <trkpt lat="43.180013" lon="-2.015106">
        <ele>267.553</ele>
        <time>2019-03-28T14:40:53Z</time>
      </trkpt>
      <trkpt lat="43.179900" lon="-2.015579">
        <ele>267.078</ele>
        <time>2019-03-28T14:41:33Z</time>
      </trkpt>
      <trkpt lat="43.180227" lon="-2.015933">
        <ele>263.365</ele>
        <time>2019-03-28T14:42:05Z</time>
      </trkpt>
      <trkpt lat="43.180851" lon="-2.016237">
        <ele>264.637</ele>
        <time>2019-03-28T14:42:53Z</time>
      </trkpt>
      <trkpt lat="43.181425" lon="-2.015932">
        <ele>268.949</ele>
        <time>2019-03-28T14:43:49Z</time>
      </trkpt>
      <trkpt lat="43.181835" lon="-2.015509">
        <ele>268.213</ele>
        <time>2019-03-28T14:45:25Z</time>
      </trkpt>
      <trkpt lat="43.182470" lon="-2.015464">
        <ele>269.008</ele>
        <time>2019-03-28T14:46:13Z</time>
      </trkpt>
      <trkpt lat="43.182953" lon="-2.015804">
        <ele>268.626</ele>
        <time>2019-03-28T14:47:01Z</time>
      </trkpt>
      <trkpt lat="43.183270" lon="-2.016966">
        <ele>268.027</ele>
        <time>2019-03-28T14:48:37Z</time>
      </trkpt>
      <trkpt lat="43.184162" lon="-2.016134">
        <ele>266.389</ele>
        <time>2019-03-28T14:50:05Z</time>
      </trkpt>
      <trkpt lat="43.184594" lon="-2.016237">
        <ele>267.288</ele>
        <time>2019-03-28T14:50:45Z</time>
      </trkpt>
      <trkpt lat="43.184898" lon="-2.016781">
        <ele>266.929</ele>
        <time>2019-03-28T14:51:25Z</time>
      </trkpt>
      <trkpt lat="43.184899" lon="-2.017493">
        <ele>267.335</ele>
        <time>2019-03-28T14:52:05Z</time>
      </trkpt>
      <trkpt lat="43.185051" lon="-2.017701">
        <ele>266.810</ele>
        <time>2019-03-28T14:52:21Z</time>
      </trkpt>
      <trkpt lat="43.185796" lon="-2.018068">
        <ele>266.737</ele>
        <time>2019-03-28T14:53:41Z</time>
      </trkpt>
      <trkpt lat="43.185949" lon="-2.017908">
        <ele>266.691</ele>
        <time>2019-03-28T14:53:57Z</time>
      </trkpt>
      <trkpt lat="43.186107" lon="-2.016767">
        <ele>266.481</ele>
        <time>2019-03-28T14:55:01Z</time>
      </trkpt>
      <trkpt lat="43.186390" lon="-2.016129">
        <ele>266.819</ele>
        <time>2019-03-28T14:55:41Z</time>
      </trkpt>
      <trkpt lat="43.186458" lon="-2.015356">
        <ele>266.408</ele>
        <time>2019-03-28T14:57:25Z</time>
      </trkpt>
      <trkpt lat="43.186152" lon="-2.014860">
        <ele>266.822</ele>
        <time>2019-03-28T14:58:05Z</time>
      </trkpt>
      <trkpt lat="43.186222" lon="-2.014324">
        <ele>266.483</ele>
        <time>2019-03-28T14:58:37Z</time>
      </trkpt>
      <trkpt lat="43.186582" lon="-2.013930">
        <ele>266.735</ele>
        <time>2019-03-28T14:59:17Z</time>
      </trkpt>
      <trkpt lat="43.186993" lon="-2.013943">
        <ele>267.374</ele>
        <time>2019-03-28T14:59:49Z</time>
      </trkpt>
      <trkpt lat="43.187496" lon="-2.013207">
        <ele>266.635</ele>
        <time>2019-03-28T15:00:37Z</time>
      </trkpt>
      <trkpt lat="43.188407" lon="-2.012381">
        <ele>267.071</ele>
        <time>2019-03-28T15:01:57Z</time>
      </trkpt>
      <trkpt lat="43.189040" lon="-2.012322">
        <ele>267.926</ele>
        <time>2019-03-28T15:03:01Z</time>
      </trkpt>
      <trkpt lat="43.189500" lon="-2.011832">
        <ele>269.173</ele>
        <time>2019-03-28T15:04:21Z</time>
      </trkpt>
      <trkpt lat="43.190237" lon="-2.011598">
        <ele>268.933</ele>
        <time>2019-03-28T15:05:41Z</time>
      </trkpt>
      <trkpt lat="43.190721" lon="-2.011873">
        <ele>269.123</ele>
        <time>2019-03-28T15:06:21Z</time>
      </trkpt>
      <trkpt lat="43.190939" lon="-2.012303">
        <ele>269.615</ele>
        <time>2019-03-28T15:07:41Z</time>
      </trkpt>
      <trkpt lat="43.191232" lon="-2.012421">
        <ele>269.108</ele>
        <time>2019-03-28T15:08:13Z</time>
      </trkpt>
      <trkpt lat="43.191520" lon="-2.013035">
        <ele>269.296</ele>
        <time>2019-03-28T15:09:49Z</time>
      </trkpt>
      <trkpt lat="43.191849" lon="-2.013340">
        <ele>269.247</ele>
        <time>2019-03-28T15:10:21Z</time>
      </trkpt>
      <trkpt lat="43.192355" lon="-2.013491">
        <ele>268.569</ele>
        <time>2019-03-28T15:10:53Z</time>
      </trkpt>
      <trkpt lat="43.193507" lon="-2.013507">
        <ele>248.268</ele>
        <time>2019-03-28T15:13:01Z</time>
      </trkpt>
      <trkpt lat="43.193950" lon="-2.014017">
        <ele>249.119</ele>
        <time>2019-03-28T15:13:49Z</time>
      </trkpt>
      <trkpt lat="43.193965" lon="-2.014717">
        <ele>250.085</ele>
        <time>2019-03-28T15:14:29Z</time>
      </trkpt>
      <trkpt lat="43.193598" lon="-2.016002">
        <ele>254.780</ele>
        <time>2019-03-28T15:15:49Z</time>
      </trkpt>
      <trkpt lat="43.193089" lon="-2.016463">
        <ele>259.597</ele>
        <time>2019-03-28T15:16:37Z</time>
      </trkpt>
      <trkpt lat="43.192729" lon="-2.017150">
        <ele>260.649</ele>
        <time>2019-03-28T15:17:25Z</time>
      </trkpt>
      <trkpt lat="43.192358" lon="-2.017489">
        <ele>258.702</ele>
        <time>2019-03-28T15:17:57Z</time>
      </trkpt>
      <trkpt lat="43.192643" lon="-2.018801">
        <ele>250.622</ele>
        <time>2019-03-28T15:19:17Z</time>
      </trkpt>
      <trkpt lat="43.192411" lon="-2.020182">
        <ele>241.008</ele>
        <time>2019-03-28T15:21:01Z</time>
      </trkpt>
      <trkpt lat="43.191978" lon="-2.020925">
        <ele>227.337</ele>
        <time>2019-03-28T15:22:37Z</time>
      </trkpt>
      <trkpt lat="43.191839" lon="-2.021613">
        <ele>218.778</ele>
        <time>2019-03-28T15:23:33Z</time>
      </trkpt>
      <trkpt lat="43.192506" lon="-2.022867">
        <ele>225.380</ele>
        <time>2019-03-28T15:25:33Z</time>
      </trkpt>
      <trkpt lat="43.192045" lon="-2.024298">
        <ele>222.439</ele>
        <time>2019-03-28T15:27:09Z</time>
      </trkpt>
      <trkpt lat="43.192451" lon="-2.024480">
        <ele>221.990</ele>
        <time>2019-03-28T15:28:45Z</time>
      </trkpt>
      <trkpt lat="43.193424" lon="-2.024066">
        <ele>221.516</ele>
        <time>2019-03-28T15:30:05Z</time>
      </trkpt>
      <trkpt lat="43.193885" lon="-2.024303">
        <ele>217.681</ele>
        <time>2019-03-28T15:30:53Z</time>
      </trkpt>
      <trkpt lat="43.194401" lon="-2.024309">
        <ele>212.728</ele>
        <time>2019-03-28T15:31:33Z</time>
      </trkpt>
      <trkpt lat="43.194790" lon="-2.023544">
        <ele>214.076</ele>
        <time>2019-03-28T15:40:13Z</time>
      </trkpt>
      <trkpt lat="43.195651" lon="-2.022752">
        <ele>215.990</ele>
        <time>2019-03-28T15:41:33Z</time>
      </trkpt>
      <trkpt lat="43.196684" lon="-2.022534">
        <ele>211.619</ele>
        <time>2019-03-28T15:43:09Z</time>
      </trkpt>
      <trkpt lat="43.197766" lon="-2.022587">
        <ele>201.108</ele>
        <time>2019-03-28T15:44:29Z</time>
      </trkpt>
      <trkpt lat="43.198674" lon="-2.021841">
        <ele>194.550</ele>
        <time>2019-03-28T15:45:49Z</time>
      </trkpt>
      <trkpt lat="43.198998" lon="-2.021877">
        <ele>194.031</ele>
        <time>2019-03-28T15:46:13Z</time>
      </trkpt>
      <trkpt lat="43.199416" lon="-2.022350">
        <ele>194.833</ele>
        <time>2019-03-28T15:47:01Z</time>
      </trkpt>
      <trkpt lat="43.199731" lon="-2.022434">
        <ele>191.352</ele>
        <time>2019-03-28T15:47:25Z</time>
      </trkpt>
      <trkpt lat="43.199880" lon="-2.022229">
        <ele>188.073</ele>
        <time>2019-03-28T15:47:41Z</time>
      </trkpt>
      <trkpt lat="43.199770" lon="-2.021083">
        <ele>178.119</ele>
        <time>2019-03-28T15:49:49Z</time>
      </trkpt>
      <trkpt lat="43.200090" lon="-2.020986">
        <ele>177.934</ele>
        <time>2019-03-28T15:50:13Z</time>
      </trkpt>
      <trkpt lat="43.201170" lon="-2.021284">
        <ele>178.451</ele>
        <time>2019-03-28T15:51:33Z</time>
      </trkpt>
      <trkpt lat="43.202452" lon="-2.023029">
        <ele>179.645</ele>
        <time>2019-03-28T15:53:41Z</time>
      </trkpt>
      <trkpt lat="43.202032" lon="-2.023716">
        <ele>176.347</ele>
        <time>2019-03-28T15:54:29Z</time>
      </trkpt>
      <trkpt lat="43.201763" lon="-2.025305">
        <ele>158.511</ele>
        <time>2019-03-28T15:55:57Z</time>
      </trkpt>
      <trkpt lat="43.201858" lon="-2.027446">
        <ele>152.008</ele>
        <time>2019-03-28T15:57:57Z</time>
      </trkpt>
      <trkpt lat="43.203592" lon="-2.030403">
        <ele>134.197</ele>
        <time>2019-03-28T16:01:17Z</time>
      </trkpt>
      <trkpt lat="43.203574" lon="-2.030545">
        <ele>134.128</ele>
        <time>2019-03-28T16:01:25Z</time>
      </trkpt>
      <trkpt lat="43.202866" lon="-2.031079">
        <ele>135.380</ele>
        <time>2019-03-28T16:02:29Z</time>
      </trkpt>
      <trkpt lat="43.202611" lon="-2.031658">
        <ele>128.529</ele>
        <time>2019-03-28T16:03:09Z</time>
      </trkpt>
      <trkpt lat="43.202408" lon="-2.032714">
        <ele>112.940</ele>
        <time>2019-03-28T16:04:21Z</time>
      </trkpt>
      <trkpt lat="43.202814" lon="-2.032931">
        <ele>105.756</ele>
        <time>2019-03-28T16:05:01Z</time>
      </trkpt>
      <trkpt lat="43.203332" lon="-2.032977">
        <ele>100.211</ele>
        <time>2019-03-28T16:05:41Z</time>
      </trkpt>
      <trkpt lat="43.204123" lon="-2.032530">
        <ele>97.968</ele>
        <time>2019-03-28T16:15:01Z</time>
      </trkpt>
      <trkpt lat="43.204836" lon="-2.032346">
        <ele>88.464</ele>
        <time>2019-03-28T16:16:05Z</time>
      </trkpt>
      <trkpt lat="43.205916" lon="-2.032997">
        <ele>61.706</ele>
        <time>2019-03-28T16:18:05Z</time>
      </trkpt>
      <trkpt lat="43.206570" lon="-2.032643">
        <ele>55.816</ele>
        <time>2019-03-28T16:18:53Z</time>
      </trkpt>
      <trkpt lat="43.207733" lon="-2.031605">
        <ele>52.708</ele>
        <time>2019-03-28T16:20:29Z</time>
      </trkpt>
      <trkpt lat="43.209295" lon="-2.029581">
        <ele>52.929</ele>
        <time>2019-03-28T16:23:01Z</time>
      </trkpt>
      <trkpt lat="43.210095" lon="-2.028248">
        <ele>52.570</ele>
        <time>2019-03-28T16:24:37Z</time>
      </trkpt>
      <trkpt lat="43.210475" lon="-2.027268">
        <ele>52.132</ele>
        <time>2019-03-28T16:25:33Z</time>
      </trkpt>
      <trkpt lat="43.211311" lon="-2.024034">
        <ele>50.471</ele>
        <time>2019-03-28T16:28:29Z</time>
      </trkpt>
      <trkpt lat="43.211965" lon="-2.022381">
        <ele>48.152</ele>
        <time>2019-03-28T16:30:21Z</time>
      </trkpt>
      <trkpt lat="43.212162" lon="-2.022414">
        <ele>46.048</ele>
        <time>2019-03-28T16:30:37Z</time>
      </trkpt>
      <trkpt lat="43.212599" lon="-2.022950">
        <ele>43.283</ele>
        <time>2019-03-28T16:31:25Z</time>
      </trkpt>
      <trkpt lat="43.213168" lon="-2.022165">
        <ele>40.940</ele>
        <time>2019-03-28T16:32:21Z</time>
      </trkpt>
      <trkpt lat="43.214228" lon="-2.022167">
        <ele>38.939</ele>
        <time>2019-03-28T16:33:49Z</time>
      </trkpt>
      <trkpt lat="43.214501" lon="-2.022351">
        <ele>37.201</ele>
        <time>2019-03-28T16:34:21Z</time>
      </trkpt>
      <trkpt lat="43.214929" lon="-2.021979">
        <ele>37.621</ele>
        <time>2019-03-28T16:34:53Z</time>
      </trkpt>
      <trkpt lat="43.215072" lon="-2.021541">
        <ele>38.308</ele>
        <time>2019-03-28T16:35:25Z</time>
      </trkpt>
      <trkpt lat="43.216910" lon="-2.021557">
        <ele>42.646</ele>
        <time>2019-03-28T16:37:49Z</time>
      </trkpt>
      <trkpt lat="43.217367" lon="-2.021398">
        <ele>45.257</ele>
        <time>2019-03-28T16:38:45Z</time>
      </trkpt>
      <trkpt lat="43.217793" lon="-2.020977">
        <ele>49.139</ele>
        <time>2019-03-28T16:39:33Z</time>
      </trkpt>
      <trkpt lat="43.218092" lon="-2.021012">
        <ele>51.038</ele>
        <time>2019-03-28T16:40:45Z</time>
      </trkpt>
    </trkseg>
  </trk></gpx>